Time;durP1;ratioP1;P1;durP2;ratioP2;P2;SDS_P1;SDS_P2;PMS_P1;PMS_P2;Temp;Humidity;BMP_temperature;BMP_pressure;BME280_temperature;BME280_humidity;BME280_pressure;Samples;Min_cycle;Max_cycle;Signal;HPM_P1;HPM_P2
2022/06/14 00:03:02;;;;;;;5.78;2.10;;;;;;;12.06;61.58;102322.97;5057700;28;20098;-75
2022/06/14 00:05:27;;;;;;;5.55;1.92;;;;;;;12.03;61.75;102323.00;5058158;28;20021;-75
2022/06/14 00:07:52;;;;;;;5.85;1.88;;;;;;;11.96;63.55;102324.75;5063678;28;20024;-75
2022/06/14 00:10:18;;;;;;;9.20;1.95;;;;;;;11.91;62.87;102324.78;5065993;28;20021;-75
2022/06/14 00:12:43;;;;;;;5.28;1.88;;;;;;;11.86;62.96;102329.16;5061117;28;20021;-75
2022/06/14 00:15:10;;;;;;;7.07;2.20;;;;;;;11.79;63.91;102333.56;5061792;28;20040;-75
2022/06/14 00:17:35;;;;;;;4.30;1.70;;;;;;;11.78;64.54;102325.75;5059009;28;20029;-75
2022/06/14 00:20:01;;;;;;;6.28;2.53;;;;;;;11.81;63.34;102328.31;5056304;28;20033;-75
2022/06/14 00:22:26;;;;;;;5.45;2.10;;;;;;;11.82;63.26;102330.06;5061936;28;20028;-75
2022/06/14 00:24:54;;;;;;;6.30;2.42;;;;;;;11.77;63.85;102331.84;5065829;28;20056;-75
2022/06/14 00:27:19;;;;;;;7.00;2.05;;;;;;;11.75;64.76;102331.00;5060834;28;20093;-75
2022/06/14 00:29:45;;;;;;;5.03;1.92;;;;;;;11.73;64.76;102337.94;5057621;28;22123;-75
2022/06/14 00:32:10;;;;;;;7.03;2.15;;;;;;;11.66;65.21;102331.91;5065397;28;20024;-75
2022/06/14 00:34:36;;;;;;;6.90;2.40;;;;;;;11.61;64.96;102336.28;5059498;28;20071;-75
2022/06/14 00:37:02;;;;;;;7.80;2.53;;;;;;;11.58;65.47;102337.19;5060132;28;20017;-75
2022/06/14 00:39:27;;;;;;;4.97;2.72;;;;;;;11.54;65.54;102332.84;5063178;28;20056;-75
2022/06/14 00:41:55;;;;;;;5.70;2.20;;;;;;;11.50;65.66;102338.94;5065096;28;20044;-75
2022/06/14 00:44:26;;;;;;;5.70;2.33;;;;;;;11.46;65.09;102326.78;5062302;28;20392;-75
2022/06/14 00:47:08;;;;;;;5.50;2.40;;;;;;;11.38;65.45;102332.94;5062844;28;20033;-75
2022/06/14 00:49:41;;;;;;;3.22;1.70;;;;;;;11.32;65.36;102332.94;5070536;28;20035;-75
2022/06/14 00:52:10;;;;;;;8.05;2.30;;;;;;;11.29;65.78;102338.16;5065670;28;20029;-74
2022/06/14 00:54:39;;;;;;;6.85;2.25;;;;;;;11.24;66.41;102339.97;5062661;28;20032;-75
2022/06/14 00:57:26;;;;;;;6.47;2.17;;;;;;;11.21;66.07;102334.75;5063985;28;20031;-75
2022/06/14 01:00:07;;;;;;;5.80;2.10;;;;;;;11.17;65.92;102322.59;5071549;28;20075;-75
2022/06/14 01:02:37;;;;;;;4.15;1.98;;;;;;;11.17;66.66;102322.59;5070257;28;20151;-75
2022/06/14 01:05:08;;;;;;;5.63;2.13;;;;;;;11.14;66.56;102317.41;5067417;28;20029;-75
2022/06/14 01:07:40;;;;;;;5.18;2.20;;;;;;;11.13;66.13;102320.88;5068011;28;20025;-75
2022/06/14 01:10:10;;;;;;;6.35;2.20;;;;;;;11.10;65.84;102315.72;5070361;28;20013;-75
2022/06/14 01:12:40;;;;;;;6.40;2.40;;;;;;;11.07;65.92;102317.44;5069693;28;20025;-75
2022/06/14 01:15:23;;;;;;;4.15;2.33;;;;;;;11.04;65.68;102322.66;5064642;28;20033;-75
2022/06/14 01:17:52;;;;;;;5.65;1.98;;;;;;;11.03;65.25;102309.63;5066379;28;20103;-75
2022/06/14 01:20:20;;;;;;;4.47;2.28;;;;;;;11.00;65.90;102305.31;5066959;28;20056;-75
2022/06/14 01:22:47;;;;;;;7.43;2.17;;;;;;;10.95;65.63;102311.41;5070038;28;20065;-75
2022/06/14 01:25:13;;;;;;;3.60;2.28;;;;;;;10.89;66.68;102313.16;5068215;28;20039;-75
2022/06/14 01:27:40;;;;;;;5.40;2.10;;;;;;;10.88;65.91;102318.38;5067092;28;20040;-75
2022/06/14 01:30:21;;;;;;;3.50;2.03;;;;;;;10.84;64.85;102309.72;5070117;28;20023;-75
2022/06/14 01:33:02;;;;;;;5.45;2.10;;;;;;;10.77;65.12;102310.59;5069470;28;20028;-75
2022/06/14 01:35:32;;;;;;;4.17;2.00;;;;;;;10.66;66.85;102309.78;5067939;28;20032;-75
2022/06/14 01:38:00;;;;;;;4.07;2.13;;;;;;;10.57;67.07;102305.47;5067505;28;20040;-75
2022/06/14 01:40:41;;;;;;;6.20;1.95;;;;;;;10.52;67.53;102302.00;5064462;28;20480;-75
2022/06/14 01:43:28;;;;;;;9.60;2.40;;;;;;;10.48;66.20;102312.41;5062476;28;20494;-75
2022/06/14 01:46:10;;;;;;;6.88;2.30;;;;;;;10.42;67.40;102309.78;5064239;28;20025;-75
2022/06/14 01:48:42;;;;;;;;;;;;;;;10.51;64.52;102308.06;5066684;28;20443;-75
2022/06/14 01:51:53;;;;;;;4.35;2.10;;;;;;;10.41;66.61;102309.81;5067746;28;19912;-75
2022/06/14 01:54:39;;;;;;;5.87;2.40;;;;;;;10.40;66.16;102301.16;5069783;28;20539;-75
2022/06/14 01:57:15;;;;;;;5.05;2.20;;;;;;;10.41;67.01;102299.41;5069907;28;20025;-75
2022/06/14 01:59:59;;;;;;;6.63;2.42;;;;;;;10.37;67.38;102297.63;5068499;28;20266;-75
2022/06/14 02:02:51;;;;;;;6.22;2.30;;;;;;;10.36;67.15;102295.91;5067601;28;20036;-74
2022/06/14 02:05:21;;;;;;;;;;;;;;;10.40;64.77;102301.16;5069554;28;20028;-75
2022/06/14 02:07:53;;;;;;;4.05;2.00;;;;;;;10.28;67.87;102298.50;5068002;28;19973;-74
2022/06/14 02:10:18;;;;;;;7.43;2.28;;;;;;;10.25;68.71;102294.19;5066022;28;20483;-75
2022/06/14 02:13:07;;;;;;;6.38;2.65;;;;;;;10.22;67.53;102293.34;5050725;28;20040;-75
2022/06/14 02:15:37;;;;;;;4.82;2.22;;;;;;;10.16;68.47;102289.00;5065880;28;20043;-75
2022/06/14 02:18:13;;;;;;;7.43;2.63;;;;;;;10.16;68.06;102292.47;5063205;28;20575;-75
2022/06/14 02:20:56;;;;;;;8.32;3.10;;;;;;;10.14;68.77;102291.59;5063314;28;20127;-75
2022/06/14 02:23:24;;;;;;;6.22;3.25;;;;;;;10.13;68.62;102278.59;5070184;28;20028;-75
2022/06/14 02:26:04;;;;;;;6.18;2.65;;;;;;;10.15;66.52;102288.13;5066837;28;20102;-75
2022/06/14 02:28:35;;;;;;;7.18;2.97;;;;;;;10.12;68.08;102282.91;5065435;28;20029;-75
2022/06/14 02:31:03;;;;;;;;;;;;;;;10.17;65.30;102281.19;5063669;28;20052;-75
2022/06/14 02:33:34;;;;;;;5.95;2.97;;;;;;;10.06;68.72;102277.75;5066466;28;19912;-74
2022/06/14 02:36:05;;;;;;;7.15;3.20;;;;;;;10.04;67.96;102276.88;5047507;28;20033;-75
2022/06/14 02:38:39;;;;;;;7.18;3.63;;;;;;;9.99;68.53;102281.19;5060475;28;20017;-74
2022/06/14 02:41:20;;;;;;;6.97;3.42;;;;;;;9.92;67.75;102274.25;5064793;28;20029;-75
2022/06/14 02:43:51;;;;;;;8.43;3.95;;;;;;;9.84;69.41;102277.72;5066579;28;20337;-75
2022/06/14 02:46:28;;;;;;;11.02;3.47;;;;;;;9.82;69.35;102269.06;5064846;28;20051;-75
2022/06/14 02:49:03;;;;;;;10.05;3.95;;;;;;;9.83;68.03;102265.59;5066245;28;20032;-74
2022/06/14 02:51:45;;;;;;;7.55;3.53;;;;;;;9.83;67.60;102273.41;5066577;28;20107;-74
2022/06/14 02:54:13;;;;;;;9.10;3.78;;;;;;;9.79;68.59;102270.81;5064412;28;20103;-75
2022/06/14 02:57:00;;;;;;;6.53;3.72;;;;;;;9.80;66.61;102260.41;5065548;28;20027;-75
2022/06/14 02:59:39;;;;;;;7.43;3.60;;;;;;;9.79;67.12;102268.19;5065106;28;20025;-75
2022/06/14 03:02:17;;;;;;;8.63;3.78;;;;;;;9.70;67.36;102263.88;5064667;28;20031;-75
2022/06/14 03:04:57;;;;;;;7.80;3.55;;;;;;;9.62;68.12;102270.78;5070187;28;20028;-74
2022/06/14 03:07:32;;;;;;;7.75;3.47;;;;;;;9.59;68.00;102273.34;5065763;28;20024;-75
2022/06/14 03:09:58;;;;;;;7.32;3.28;;;;;;;9.56;68.93;102277.69;5069156;28;20548;-74
2022/06/14 03:12:43;;;;;;;6.10;3.13;;;;;;;9.51;69.86;102276.84;5065983;28;20020;-75
2022/06/14 03:15:18;;;;;;;8.00;3.08;;;;;;;9.47;69.71;102277.69;5060565;28;20075;-74
2022/06/14 03:18:01;;;;;;;8.98;3.42;;;;;;;9.45;69.45;102276.81;5068078;28;20118;-74
2022/06/14 03:20:44;;;;;;;6.30;3.25;;;;;;;9.45;68.27;102268.16;5066152;28;20484;-74
2022/06/14 03:23:18;;;;;;;9.35;3.50;;;;;;;9.46;68.78;102273.34;5059880;28;20087;-74
2022/06/14 03:25:52;;;;;;;6.30;3.00;;;;;;;9.44;69.26;102271.63;5067607;28;20032;-74
2022/06/14 03:28:28;;;;;;;5.65;3.17;;;;;;;9.39;69.73;102274.22;5070621;28;20460;-74
2022/06/14 03:31:05;;;;;;;8.38;3.63;;;;;;;9.34;69.69;102278.53;5063673;28;20020;-75
2022/06/14 03:33:45;;;;;;;7.70;4.00;;;;;;;9.34;68.37;102276.78;5066249;28;20124;-74
2022/06/14 03:36:11;;;;;;;9.23;3.75;;;;;;;9.35;69.13;102272.47;5066135;28;20498;-74
2022/06/14 03:38:42;;;;;;;6.20;3.17;;;;;;;9.31;69.35;102279.34;5068807;28;20055;-74
2022/06/14 03:41:12;;;;;;;7.30;3.75;;;;;;;9.25;69.74;102282.81;5068619;28;20043;-75
2022/06/14 03:43:38;;;;;;;5.65;3.72;;;;;;;9.19;70.47;102280.22;5064571;28;20475;-74
2022/06/14 03:46:09;;;;;;;7.07;3.58;;;;;;;9.17;71.00;102278.47;5066028;28;20077;-74
2022/06/14 03:48:38;;;;;;;10.00;3.28;;;;;;;9.17;70.64;102278.47;5066284;28;20546;-74
2022/06/14 03:51:37;;;;;;;8.63;3.78;;;;;;;9.17;69.96;102283.66;5063215;28;20073;-74
2022/06/14 03:54:18;;;;;;;7.97;3.40;;;;;;;9.17;69.98;102273.25;5069832;28;20489;-75
2022/06/14 03:57:13;;;;;;;7.80;3.47;;;;;;;9.19;70.21;102272.44;5067563;28;20038;-74
2022/06/14 03:59:48;;;;;;;9.55;3.70;;;;;;;9.21;71.27;102275.91;5053339;28;20040;-75
2022/06/14 04:05:39;;;;;;;6.40;3.38;;;;;;;9.17;68.96;102274.16;5064869;28;20051;-75
2022/06/14 04:08:10;;;;;;;7.55;3.10;;;;;;;9.16;70.43;102272.41;5069412;28;20019;-74
2022/06/14 04:10:48;;;;;;;7.82;3.47;;;;;;;9.16;70.24;102277.59;5067692;28;20032;-75
2022/06/14 04:13:36;;;;;;;9.32;3.55;;;;;;;9.17;69.98;102279.34;5064903;28;20031;-74
2022/06/14 04:16:26;;;;;;;7.22;3.08;;;;;;;9.16;70.81;102281.91;5064415;28;20364;-75
2022/06/14 04:19:07;;;;;;;7.65;3.20;;;;;;;9.17;70.86;102284.53;5065872;28;20053;-74
2022/06/14 04:21:57;;;;;;;6.85;3.22;;;;;;;9.21;70.37;102290.59;5062054;28;20551;-74
2022/06/14 04:24:41;;;;;;;8.27;3.60;;;;;;;9.17;71.93;102289.72;5065778;28;20028;-74
2022/06/14 04:27:22;;;;;;;7.57;3.05;;;;;;;9.21;71.95;102290.59;5065280;28;20033;-74
2022/06/14 04:30:09;;;;;;;6.93;3.33;;;;;;;9.29;71.37;102293.22;5064792;28;20061;-74
2022/06/14 04:32:53;;;;;;;8.90;3.38;;;;;;;9.36;71.95;102294.97;5059960;28;20017;-74
2022/06/14 04:35:34;;;;;;;6.25;3.42;;;;;;;9.37;72.15;102301.91;5065765;28;20052;-74
2022/06/14 04:38:06;;;;;;;7.40;3.55;;;;;;;9.42;72.57;102294.97;5063825;28;20170;-74
2022/06/14 04:40:34;;;;;;;;;;;;;;;9.54;68.93;102291.53;5042883;28;20021;-74
2022/06/14 04:43:11;;;;;;;5.68;3.05;;;;;;;9.51;72.08;102292.41;5060458;28;19920;-74
2022/06/14 04:45:45;;;;;;;6.78;3.80;;;;;;;9.54;72.55;102299.34;5067646;28;20031;-74
2022/06/14 04:48:24;;;;;;;7.15;3.22;;;;;;;9.57;72.48;102288.97;5067138;28;20031;-74
2022/06/14 04:51:01;;;;;;;7.93;3.40;;;;;;;9.66;72.17;102293.31;5068234;28;20028;-74
2022/06/14 04:53:35;;;;;;;6.63;3.80;;;;;;;9.70;73.45;102295.91;5038464;28;20376;-74
2022/06/14 04:56:07;;;;;;;8.65;3.97;;;;;;;9.74;73.30;102296.75;5060586;28;20479;-74
2022/06/14 04:58:46;;;;;;;10.93;4.20;;;;;;;9.81;72.33;102297.66;5054177;28;20028;-74
2022/06/14 05:01:16;;;;;;;10.00;5.10;;;;;;;9.89;73.18;102301.13;5057524;28;20033;-75
2022/06/14 05:03:48;;;;;;;10.18;4.97;;;;;;;9.96;73.21;102297.66;5059459;28;20028;-74
2022/06/14 05:06:21;;;;;;;8.98;5.50;;;;;;;10.03;73.16;102295.94;5060950;28;20021;-74
2022/06/14 05:08:59;;;;;;;10.88;6.25;;;;;;;10.13;73.25;102286.41;5064684;28;20033;-74
2022/06/14 05:11:39;;;;;;;12.48;7.20;;;;;;;10.22;73.28;102288.13;5062533;28;20016;-74
2022/06/14 05:14:11;;;;;;;15.27;7.88;;;;;;;10.29;73.93;102279.44;5059807;28;20067;-74
2022/06/14 05:17:02;;;;;;;15.32;8.57;;;;;;;10.39;72.96;102290.72;5060806;28;20028;-75
2022/06/14 05:19:36;;;;;;;14.35;9.43;;;;;;;10.45;73.80;102291.59;5066419;28;20037;-75
2022/06/14 05:22:11;;;;;;;12.05;8.63;;;;;;;10.52;73.74;102296.78;5043106;28;20060;-74
2022/06/14 05:24:38;;;;;;;13.10;6.93;;;;;;;10.58;73.87;102292.44;5064765;28;20029;-75
2022/06/14 05:27:33;;;;;;;10.75;6.13;;;;;;;10.65;73.89;102295.88;5064689;28;20021;-74
2022/06/14 05:30:19;;;;;;;10.57;5.75;;;;;;;10.73;73.86;102304.53;5066700;28;20020;-75
2022/06/14 05:33:10;;;;;;;8.40;5.25;;;;;;;10.81;73.56;102303.63;5069881;28;20056;-75
2022/06/14 05:35:44;;;;;;;8.30;5.20;;;;;;;10.85;74.42;102301.00;5068378;28;20090;-75
2022/06/14 05:38:32;;;;;;;10.68;5.32;;;;;;;10.95;74.59;102307.06;5068204;28;20467;-75
2022/06/14 05:41:04;;;;;;;9.75;5.22;;;;;;;11.04;74.15;102307.03;5068528;28;20035;-74
2022/06/14 05:43:29;;;;;;;;;;;;;;;11.16;70.59;102313.06;5068199;28;21803;-75
2022/06/14 05:46:05;;;;;;;9.98;5.13;;;;;;;11.24;73.39;102308.69;5062280;28;19923;-75
2022/06/14 05:48:34;;;;;;;8.05;4.63;;;;;;;11.32;73.84;102304.28;5065386;28;20035;-74
2022/06/14 05:51:01;;;;;;;10.20;4.60;;;;;;;11.41;73.80;102305.13;5045431;28;20024;-74
2022/06/14 05:53:41;;;;;;;8.30;4.43;;;;;;;11.48;72.65;102301.59;5048298;28;20374;-74
2022/06/14 05:56:21;;;;;;;9.30;4.30;;;;;;;11.53;72.42;102305.06;5062211;28;20017;-74
2022/06/14 05:59:02;;;;;;;7.38;3.80;;;;;;;11.59;72.36;102307.63;5064742;28;20033;-75
2022/06/14 06:01:47;;;;;;;9.55;3.97;;;;;;;11.68;73.61;102304.09;5065649;28;20134;-75
2022/06/14 06:04:23;;;;;;;7.70;3.92;;;;;;;11.78;72.79;102317.94;5067268;28;20356;-74
2022/06/14 06:06:52;;;;;;;10.57;4.10;;;;;;;11.90;72.51;102314.34;5066560;28;20024;-75
2022/06/14 06:09:20;;;;;;;9.05;4.13;;;;;;;11.95;73.36;102316.06;5065558;28;20383;-75
2022/06/14 06:11:53;;;;;;;10.23;4.00;;;;;;;12.02;73.67;102305.59;5067984;28;20021;-74
2022/06/14 06:14:30;;;;;;;10.48;4.25;;;;;;;12.09;73.16;102310.75;5063249;28;20143;-75
2022/06/14 06:17:22;;;;;;;8.68;4.13;;;;;;;12.18;71.78;102304.59;5060135;28;20025;-75
2022/06/14 06:20:26;;;;;;;9.15;4.28;;;;;;;12.23;72.11;102312.38;5056130;28;20032;-74
2022/06/14 06:23:02;;;;;;;8.68;3.58;;;;;;;12.32;71.99;102316.63;5013338;28;20510;-74
2022/06/14 06:25:35;;;;;;;8.75;3.85;;;;;;;12.42;71.68;102318.31;5061963;28;20020;-74
2022/06/14 06:28:13;;;;;;;9.60;3.90;;;;;;;12.49;70.13;102317.34;5062905;28;20044;-75
2022/06/14 06:30:51;;;;;;;7.85;3.28;;;;;;;12.55;69.91;102319.91;5064350;28;20021;-75
2022/06/14 06:33:19;;;;;;;7.90;3.53;;;;;;;12.66;72.07;102321.53;5070336;28;20019;-75
2022/06/14 06:35:53;;;;;;;8.02;3.67;;;;;;;12.76;71.03;102304.91;5062816;28;20038;-74
2022/06/14 06:38:37;;;;;;;10.30;3.70;;;;;;;12.87;69.60;102305.63;5047051;28;20386;-75
2022/06/14 06:44:06;;;;;;;6.93;2.75;;;;;;;13.03;68.14;102308.03;5061728;28;20039;-74
2022/06/14 06:46:38;;;;;;;7.03;2.80;;;;;;;13.09;68.96;102315.81;5063681;28;21428;-75
2022/06/14 06:49:08;;;;;;;6.43;2.70;;;;;;;13.25;68.87;102321.69;5060458;28;20036;-74
2022/06/14 06:51:48;;;;;;;4.80;2.05;;;;;;;13.36;65.05;102314.59;5066367;28;20029;-75
2022/06/14 06:54:26;;;;;;;6.78;1.92;;;;;;;13.49;64.26;102325.75;5060357;28;20518;-75
2022/06/14 06:56:57;;;;;;;5.13;1.98;;;;;;;13.60;62.74;102319.53;5065008;28;20053;-76
2022/06/14 06:59:38;;;;;;;7.45;2.00;;;;;;;13.70;62.55;102312.41;5064854;28;20032;-75
2022/06/14 07:02:14;;;;;;;8.05;2.10;;;;;;;13.76;60.74;102313.19;5068812;28;20029;-74
2022/06/14 07:07:51;;;;;;;6.07;2.28;;;;;;;13.79;60.09;102320.97;5063468;28;20052;-75
2022/06/14 07:10:35;;;;;;;7.78;1.80;;;;;;;13.90;62.41;102319.94;5066257;28;20020;-75
2022/06/14 07:13:10;;;;;;;3.75;1.40;;;;;;;13.98;63.48;102318.06;5063858;28;20030;-75
2022/06/14 07:15:41;;;;;;;2.75;1.20;;;;;;;14.06;60.66;102315.34;5065201;28;20774;-75
2022/06/14 07:18:18;;;;;;;5.65;1.55;;;;;;;14.12;60.55;102320.44;5066577;28;20383;-75
2022/06/14 07:20:52;;;;;;;5.30;1.70;;;;;;;14.19;62.18;102315.97;5064202;28;20469;-75
2022/06/14 07:23:29;;;;;;;4.55;1.85;;;;;;;14.27;62.46;102314.09;5049487;28;20641;-75
2022/06/14 07:26:08;;;;;;;4.70;1.65;;;;;;;14.37;62.39;102309.56;5065748;28;20032;-74
2022/06/14 07:28:36;;;;;;;4.03;1.80;;;;;;;14.45;59.44;102319.88;5070083;28;21410;-75
2022/06/14 07:31:09;;;;;;;5.10;1.58;;;;;;;14.45;56.35;102314.66;5048231;28;20031;-75
2022/06/14 07:33:36;;;;;;;6.65;1.80;;;;;;;14.43;56.87;102314.69;5064392;28;20422;-75
2022/06/14 07:36:11;;;;;;;5.30;1.60;;;;;;;14.47;59.52;102315.50;5064216;28;20020;-75
2022/06/14 07:38:40;;;;;;;3.75;1.63;;;;;;;14.52;56.12;102319.75;5065651;28;20031;-75
2022/06/14 07:41:39;;;;;;;6.00;1.60;;;;;;;14.54;57.19;102311.84;5066476;28;20020;-75
2022/06/14 07:44:17;;;;;;;6.43;1.63;;;;;;;14.55;58.93;102313.56;5063093;28;20040;-74
2022/06/14 07:46:54;;;;;;;4.93;1.50;;;;;;;14.60;58.10;102311.75;5065004;28;20499;-75
2022/06/14 07:49:35;;;;;;;4.45;1.65;;;;;;;14.62;57.30;102304.72;5066257;28;20028;-75
2022/06/14 07:52:19;;;;;;;4.78;1.60;;;;;;;14.61;56.58;102308.22;5067269;28;20024;-75
2022/06/14 07:54:49;;;;;;;3.28;1.50;;;;;;;14.63;59.78;102308.19;5067231;28;20028;-74
2022/06/14 07:57:20;;;;;;;1.98;1.27;;;;;;;14.68;57.76;102309.88;5067951;28;20031;-75
2022/06/14 08:01:07;;;;;;;3.00;1.20;;;;;;;14.78;57.83;102312.31;5071613;28;20060;-75
2022/06/14 08:02:47;;;;;;;3.50;1.20;;;;;;;14.85;56.74;102311.31;5066631;28;20487;-75
2022/06/14 08:05:19;;;;;;;4.38;1.20;;;;;;;14.86;53.14;102310.38;5062319;28;20109;-75
2022/06/14 08:07:48;;;;;;;3.90;1.40;;;;;;;14.87;56.34;102309.50;5069658;28;20390;-75
2022/06/14 08:10:20;;;;;;;3.20;1.23;;;;;;;14.90;57.03;102304.19;5062857;28;20028;-76
2022/06/14 08:12:52;;;;;;;3.83;1.20;;;;;;;14.96;57.42;102311.94;5066824;28;20058;-75
2022/06/14 08:15:41;;;;;;;3.45;1.33;;;;;;;15.04;56.82;102306.53;5067138;28;20037;-75
2022/06/14 08:18:30;;;;;;;4.60;1.10;;;;;;;15.10;56.53;102305.53;5066045;28;20021;-75
2022/06/14 08:21:31;;;;;;;3.65;1.13;;;;;;;15.15;56.76;102298.44;5067411;28;20025;-75
2022/06/14 08:24:22;;;;;;;1.92;1.08;;;;;;;15.16;56.21;102300.19;5062197;28;20032;-75
2022/06/14 08:26:54;;;;;;;4.07;1.35;;;;;;;15.20;58.47;102301.81;5060251;28;20051;-75
2022/06/14 08:29:24;;;;;;;4.75;1.33;;;;;;;15.22;54.70;102297.41;5066081;28;20025;-75
2022/06/14 08:31:58;;;;;;;3.80;1.47;;;;;;;15.30;57.06;102289.38;5057754;28;20035;-75
2022/06/14 08:34:50;;;;;;;2.75;1.20;;;;;;;15.37;57.80;102296.22;5068508;28;20472;-75
2022/06/14 08:37:37;;;;;;;5.60;1.38;;;;;;;15.43;54.85;102289.97;5059336;28;20473;-75
2022/06/14 08:40:08;;;;;;;4.40;1.30;;;;;;;15.43;53.68;102292.59;5060098;28;20027;-75
2022/06/14 08:42:45;;;;;;;4.00;1.50;;;;;;;15.47;56.08;102294.25;5060901;28;20025;-75
2022/06/14 08:45:29;;;;;;;2.67;1.13;;;;;;;15.51;54.19;102285.41;5059278;28;20029;-75
2022/06/14 08:48:04;;;;;;;3.13;1.25;;;;;;;15.52;52.66;102287.16;5056473;28;20047;-75
2022/06/14 08:50:34;;;;;;;2.67;1.20;;;;;;;15.54;53.11;102281.84;5066614;28;20025;-75
2022/06/14 08:53:24;;;;;;;2.45;0.93;;;;;;;15.55;54.72;102286.19;5060723;28;20039;-75
2022/06/14 08:56:18;;;;;;;4.50;1.30;;;;;;;15.60;56.63;102293.06;5060183;28;20060;-75
2022/06/14 08:59:27;;;;;;;2.92;1.20;;;;;;;15.67;55.85;102285.06;5057883;28;20051;-75
2022/06/14 09:02:14;;;;;;;3.70;1.45;;;;;;;15.67;53.19;102290.28;5055344;28;20553;-75
2022/06/14 09:04:49;;;;;;;4.85;1.70;;;;;;;15.68;53.05;102287.63;5062426;28;20103;-75
2022/06/14 09:07:34;;;;;;;4.13;1.20;;;;;;;15.72;53.79;102288.41;5057922;28;20028;-75
2022/06/14 09:10:21;;;;;;;5.47;1.52;;;;;;;15.76;54.50;102284.81;5058943;28;20043;-75
2022/06/14 09:13:15;;;;;;;5.70;1.52;;;;;;;15.84;53.76;102285.50;5066843;28;20047;-75
2022/06/14 09:16:14;;;;;;;4.95;1.58;;;;;;;15.90;52.47;102279.25;5070106;28;20031;-75
2022/06/14 09:18:52;;;;;;;4.30;1.63;;;;;;;15.88;50.72;102288.94;5058840;28;20116;-76
2022/06/14 09:21:45;;;;;;;5.55;1.75;;;;;;;15.88;52.22;102284.56;5056386;28;20051;-76
2022/06/14 09:24:16;;;;;;;3.10;1.30;;;;;;;15.97;55.15;102274.72;5058859;28;20812;-75
2022/06/14 09:27:06;;;;;;;5.25;1.40;;;;;;;16.06;55.51;102277.09;5067985;28;20052;-75
2022/06/14 09:29:53;;;;;;;3.00;1.40;;;;;;;16.09;52.03;102277.03;5060517;28;20147;-76
2022/06/14 09:35:57;;;;;;;5.70;1.45;;;;;;;16.24;54.28;102275.75;5063247;28;20059;-75
2022/06/14 09:38:59;;;;;;;3.08;1.35;;;;;;;16.32;54.50;102283.44;5062513;28;20031;-76
2022/06/14 09:41:27;;;;;;;4.03;1.58;;;;;;;16.31;50.64;102276.47;5057667;28;20116;-75
2022/06/14 09:44:11;;;;;;;2.88;1.40;;;;;;;16.31;52.56;102277.31;5060132;28;20111;-76
2022/06/14 09:46:51;;;;;;;3.17;1.40;;;;;;;16.27;49.96;102265.19;5061316;28;20032;-75
2022/06/14 09:49:45;;;;;;;3.70;1.70;;;;;;;16.24;51.42;102266.09;5062680;28;20037;-75
2022/06/14 09:52:47;;;;;;;3.30;1.50;;;;;;;16.28;52.23;102266.03;5057437;28;20036;-75
2022/06/14 09:55:30;;;;;;;2.85;1.30;;;;;;;16.34;52.20;102260.63;5062765;28;20081;-76
2022/06/14 09:58:13;;;;;;;3.33;1.48;;;;;;;16.40;52.87;102260.44;5065968;28;20111;-75
2022/06/14 10:00:58;;;;;;;6.20;1.70;;;;;;;16.46;53.44;102260.28;5071334;28;20189;-76
2022/06/14 10:03:34;;;;;;;4.95;1.75;;;;;;;16.49;52.09;102251.44;5077016;28;20066;-76
2022/06/14 10:06:18;;;;;;;7.57;2.10;;;;;;;16.53;50.46;102251.34;5059466;28;20116;-75
2022/06/14 10:09:13;;;;;;;8.65;2.00;;;;;;;16.57;53.15;102240.75;5060009;28;20035;-75
2022/06/14 10:11:59;;;;;;;4.05;1.70;;;;;;;16.59;53.54;102238.91;5067904;28;20031;-75
2022/06/14 10:14:49;;;;;;;2.65;1.30;;;;;;;16.60;52.13;102236.25;5060702;28;20434;-76
2022/06/14 10:17:26;;;;;;;3.47;1.52;;;;;;;16.66;53.50;102240.47;5068496;28;20031;-75
2022/06/14 10:20:19;;;;;;;3.65;1.70;;;;;;;16.73;52.81;102234.13;5050374;28;20275;-76
2022/06/14 10:23:05;;;;;;;3.83;1.48;;;;;;;16.75;50.75;102237.56;5073596;28;20108;-75
2022/06/14 10:25:33;;;;;;;4.38;1.73;;;;;;;16.77;51.74;102238.38;5077680;28;20024;-76
2022/06/14 10:28:12;;;;;;;3.40;1.60;;;;;;;16.81;53.19;102228.66;5068007;28;20064;-75
2022/06/14 10:31:03;;;;;;;4.57;1.60;;;;;;;16.86;51.65;102225.88;5082582;28;20107;-76
2022/06/14 10:33:44;;;;;;;5.13;1.77;;;;;;;16.86;52.27;102225.88;5070577;28;20032;-76
2022/06/14 10:36:21;;;;;;;5.28;1.60;;;;;;;16.88;50.52;102230.16;5066107;28;20111;-76
2022/06/14 10:39:01;;;;;;;3.75;1.75;;;;;;;16.86;49.06;102218.00;5075219;28;20093;-76
2022/06/14 10:41:59;;;;;;;3.58;1.63;;;;;;;16.83;49.62;102222.44;5068859;28;20032;-76
2022/06/14 10:44:34;;;;;;;5.75;1.70;;;;;;;16.83;50.35;102211.91;5045206;28;20041;-76
2022/06/14 10:47:17;;;;;;;6.22;1.90;;;;;;;16.86;50.60;102218.00;5066082;28;20039;-77
2022/06/14 10:50:09;;;;;;;3.65;1.60;;;;;;;16.92;51.16;102215.16;5071515;28;20024;-75
2022/06/14 10:53:06;;;;;;;5.38;1.83;;;;;;;16.96;50.62;102203.69;5063647;28;20029;-75
2022/06/14 10:56:15;;;;;;;3.58;1.35;;;;;;;16.99;51.15;102206.22;5070817;28;20040;-75
2022/06/14 10:59:06;;;;;;;5.85;2.08;;;;;;;17.00;50.99;102205.31;5050078;28;20048;-75
2022/06/14 11:02:00;;;;;;;3.95;1.60;;;;;;;17.04;51.31;102193.81;5065121;28;20028;-75
2022/06/14 11:04:25;;;;;;;4.25;1.42;;;;;;;17.03;50.76;102189.44;5056321;28;20041;-77
2022/06/14 11:07:08;;;;;;;4.65;1.70;;;;;;;17.06;50.42;102192.00;5068175;28;20036;-76
2022/06/14 11:09:47;;;;;;;3.05;1.58;;;;;;;17.10;50.79;102187.47;5066494;28;20048;-77
2022/06/14 11:12:31;;;;;;;3.97;1.67;;;;;;;17.11;48.94;102178.69;5066071;28;20016;-75
2022/06/14 11:15:17;;;;;;;3.97;1.60;;;;;;;17.16;50.66;102187.31;5065814;28;20024;-73
2022/06/14 11:18:11;;;;;;;3.38;1.40;;;;;;;17.18;53.41;102180.19;5061931;28;20021;-75
2022/06/14 11:20:46;;;;;;;7.45;2.10;;;;;;;17.22;51.48;102183.59;5056812;28;20488;-74
2022/06/14 11:23:18;;;;;;;3.90;1.65;;;;;;;17.21;48.99;102177.47;5062120;28;20178;-74
2022/06/14 11:25:50;;;;;;;4.25;1.80;;;;;;;17.21;49.14;102174.00;5063147;28;20048;-74
2022/06/14 11:28:30;;;;;;;5.15;2.20;;;;;;;17.22;49.05;102173.94;5066802;28;20016;-73
2022/06/14 11:31:24;;;;;;;4.03;1.90;;;;;;;17.30;52.25;102165.78;5065185;28;20028;-74
2022/06/14 11:34:26;;;;;;;3.70;1.80;;;;;;;17.32;50.18;102166.59;5068625;28;20394;-74
2022/06/14 11:37:20;;;;;;;6.45;2.08;;;;;;;17.33;50.08;102168.31;4966390;28;20027;-74
2022/06/14 11:39:52;;;;;;;4.03;2.00;;;;;;;17.35;47.55;102161.25;5068241;28;20063;-75
2022/06/14 11:42:27;;;;;;;3.20;1.50;;;;;;;17.37;49.12;102159.44;5067925;28;20036;-74
2022/06/14 11:45:19;;;;;;;5.15;1.67;;;;;;;17.37;50.90;102148.91;5068559;28;20052;-74
2022/06/14 11:47:50;;;;;;;3.33;1.40;;;;;;;17.39;50.78;102149.72;5066335;28;20028;-74
2022/06/14 11:50:32;;;;;;;4.95;1.58;;;;;;;17.43;51.37;102142.56;5059851;28;20405;-74
2022/06/14 11:53:45;;;;;;;5.93;2.00;;;;;;;17.43;49.15;102147.84;5063762;28;20029;-74
2022/06/14 11:56:21;;;;;;;4.97;2.10;;;;;;;17.40;47.60;102142.69;5063661;28;20016;-74
2022/06/14 11:59:24;;;;;;;5.00;2.20;;;;;;;17.41;48.63;102139.13;5061017;28;20479;-74
2022/06/14 12:02:11;;;;;;;5.93;2.58;;;;;;;17.36;46.04;102143.69;5053931;28;23362;-74
2022/06/14 12:04:52;;;;;;;4.30;2.00;;;;;;;17.39;51.08;102135.69;5066901;28;20492;-74
2022/06/14 12:07:42;;;;;;;4.03;2.00;;;;;;;17.45;50.46;102136.34;5060335;28;20037;-74
2022/06/14 12:10:34;;;;;;;5.80;2.20;;;;;;;17.51;49.79;102134.41;5062672;28;20021;-74
2022/06/14 12:13:27;;;;;;;6.30;2.00;;;;;;;17.54;50.16;102135.16;5057593;28;20036;-74
2022/06/14 12:16:03;;;;;;;5.88;2.30;;;;;;;17.57;51.64;102135.06;5064204;28;20096;-75
2022/06/14 12:18:33;;;;;;;4.07;2.22;;;;;;;17.62;49.54;102137.53;5066988;28;20028;-74
2022/06/14 12:21:10;;;;;;;5.25;2.42;;;;;;;17.66;48.48;102128.63;5062574;28;20033;-74
2022/06/14 12:24:02;;;;;;;6.78;2.80;;;;;;;17.68;49.08;102121.53;5062484;28;20024;-74
2022/06/14 12:26:59;;;;;;;4.57;2.17;;;;;;;17.73;48.24;102130.13;5064517;28;20054;-74
2022/06/14 12:29:30;;;;;;;6.18;2.10;;;;;;;17.77;46.64;102127.38;5055528;28;20044;-75
2022/06/14 12:32:16;;;;;;;5.30;2.35;;;;;;;17.84;49.42;102121.88;5061606;28;20094;-74
2022/06/14 12:34:49;;;;;;;5.25;2.30;;;;;;;17.90;47.70;102121.63;5053862;28;20029;-75